createdAt,value
2023-04-26T00:00:57.074Z,98284.25
2023-04-26T00:03:27.983Z,98285.09
2023-04-26T00:05:58.619Z,98280.66
2023-04-26T00:08:32.087Z,98280.13
2023-04-26T00:11:02.521Z,98281.72
2023-04-26T00:13:33.196Z,98278.44
2023-04-26T00:16:03.695Z,98279.44
2023-04-26T00:18:34.785Z,98276.25
2023-04-26T00:21:05.213Z,98281.38
2023-04-26T00:23:39.457Z,98284.97
2023-04-26T00:26:09.890Z,98287.75
2023-04-26T00:28:40.423Z,98283.63
2023-04-26T00:31:10.915Z,98286.34
2023-04-26T00:33:41.455Z,98277.03
2023-04-26T00:36:12.175Z,98289.34
2023-04-26T00:38:45.341Z,98289.41
2023-04-26T00:41:15.929Z,98288.22
2023-04-26T00:43:46.805Z,98288.31
2023-04-26T00:46:17.551Z,98289.19
2023-04-26T00:48:48.308Z,98285.06
2023-04-26T00:51:19.151Z,98283.34
2023-04-26T00:53:52.858Z,98290.31
2023-04-26T00:56:25.259Z,98298.84
2023-04-26T00:58:55.668Z,98286.91
2023-04-26T01:01:26.421Z,98295.66
2023-04-26T01:03:57.196Z,98296.56
2023-04-26T01:06:27.924Z,98281.34
2023-04-26T01:09:03.867Z,98291.63
2023-04-26T01:11:35.150Z,98290.75
2023-04-26T01:14:07.038Z,98298.50
2023-04-26T01:16:39.554Z,98288.91
2023-04-26T01:19:15.532Z,98296.94
2023-04-26T01:21:46.654Z,98294.38
2023-04-26T01:24:20.409Z,98297.28
2023-04-26T01:26:51.142Z,98297.13
2023-04-26T01:29:24.408Z,98298.13
2023-04-26T01:31:54.887Z,98287.22
2023-04-26T01:34:25.337Z,98284.78
2023-04-26T01:36:55.787Z,98279.72
2023-04-26T01:39:28.939Z,98287.50
2023-04-26T01:42:03.070Z,98287.50
2023-04-26T01:44:35.997Z,98285.03
2023-04-26T01:47:06.860Z,98291.03
2023-04-26T01:49:37.487Z,98281.75
2023-04-26T01:52:08.167Z,98290.19
2023-04-26T01:54:41.513Z,98285.91
2023-04-26T01:57:12.058Z,98285.78
2023-04-26T01:59:42.560Z,98289.34
2023-04-26T02:02:13.047Z,98291.91
2023-04-26T02:04:43.507Z,98289.56
2023-04-26T02:07:14.192Z,98286.28
2023-04-26T02:09:52.853Z,98288.00
2023-04-26T02:12:25.475Z,98290.69
2023-04-26T02:14:56.664Z,98290.69
2023-04-26T02:17:29.462Z,98288.13
2023-04-26T02:20:00.218Z,98278.75
2023-04-26T02:22:32.260Z,98286.44
2023-04-26T02:25:05.779Z,98283.00
2023-04-26T02:27:37.231Z,98281.47
2023-04-26T02:30:09.628Z,98284.91
2023-04-26T02:32:40.432Z,98282.28
2023-04-26T02:35:12.502Z,98276.41
2023-04-26T02:37:42.871Z,98285.09
2023-04-26T02:40:16.238Z,98289.38
2023-04-26T02:42:46.701Z,98291.97
2023-04-26T02:45:17.452Z,98294.59
2023-04-26T02:47:51.055Z,98285.28
2023-04-26T02:50:21.849Z,98298.06
2023-04-26T02:52:53.577Z,98286.13
2023-04-26T02:55:26.897Z,98291.25
2023-04-26T02:57:57.708Z,98296.44
2023-04-26T03:00:28.777Z,98294.69
2023-04-26T03:02:59.922Z,98300.78
2023-04-26T03:05:30.824Z,98297.44
2023-04-26T03:08:01.949Z,98290.72
2023-04-26T03:10:35.752Z,98290.72
2023-04-26T03:13:07.400Z,98292.41
2023-04-26T03:15:38.768Z,98291.63
2023-04-26T03:18:09.445Z,98293.38
2023-04-26T03:20:40.256Z,98294.25
2023-04-26T03:23:10.919Z,98290.91
2023-04-26T03:25:43.943Z,98291.78
2023-04-26T03:28:14.382Z,98296.88
2023-04-26T03:30:45.945Z,98298.66
2023-04-26T03:33:16.923Z,98294.34
2023-04-26T03:35:47.841Z,98304.69
2023-04-26T03:38:18.264Z,98297.22
2023-04-26T03:40:51.919Z,98309.25
2023-04-26T03:43:22.268Z,98299.16
2023-04-26T03:45:53.445Z,98304.38
2023-04-26T03:48:23.901Z,98291.72
2023-04-26T03:50:54.613Z,98289.25
2023-04-26T03:53:25.012Z,98296.19
2023-04-26T03:55:58.764Z,98298.81
2023-04-26T03:58:29.256Z,98299.00
2023-04-26T04:01:00.400Z,98304.25
2023-04-26T04:03:31.052Z,98300.97
2023-04-26T04:06:01.982Z,98298.47
2023-04-26T04:08:32.973Z,98297.72
2023-04-26T04:11:06.406Z,98302.03
2023-04-26T04:13:40.255Z,98304.72
2023-04-26T04:16:10.815Z,98303.09
2023-04-26T04:18:41.240Z,98300.59
2023-04-26T04:21:12.280Z,98304.91
2023-04-26T04:23:43.650Z,98308.34
2023-04-26T04:26:19.276Z,98299.03
2023-04-26T04:28:50.053Z,98297.38
2023-04-26T04:31:21.269Z,98301.66
2023-04-26T04:33:51.769Z,98298.28
2023-04-26T04:36:22.473Z,98306.03
2023-04-26T04:38:53.808Z,98310.31
2023-04-26T04:41:28.091Z,98313.72
2023-04-26T04:43:58.653Z,98308.63
2023-04-26T04:46:29.402Z,98310.41
2023-04-26T04:48:59.988Z,98312.13
2023-04-26T04:51:30.594Z,98313.84
2023-04-26T04:54:01.191Z,98319.81
2023-04-26T04:56:34.199Z,98322.38
2023-04-26T04:59:04.856Z,98319.84
2023-04-26T05:01:37.229Z,98322.38
2023-04-26T05:04:10.573Z,98324.94
2023-04-26T05:06:41.910Z,98335.09
2023-04-26T05:09:12.816Z,98340.06
2023-04-26T05:11:47.025Z,98339.06
2023-04-26T05:14:17.623Z,98347.44
2023-04-26T05:16:48.310Z,98340.56
2023-04-26T05:19:18.863Z,98340.66
2023-04-26T05:21:49.676Z,98350.06
2023-04-26T05:24:20.798Z,98342.41
2023-04-26T05:26:53.812Z,98342.31
2023-04-26T05:29:35.784Z,98355.13
2023-04-26T05:32:24.833Z,98359.41
2023-04-26T05:35:13.896Z,98357.75
2023-04-26T05:37:44.354Z,98358.47
2023-04-26T05:40:17.280Z,98361.59
2023-04-26T05:42:50.948Z,98365.06
2023-04-26T05:45:21.544Z,98366.91
2023-04-26T05:47:54.028Z,98367.75
2023-04-26T05:50:24.653Z,98367.84
2023-04-26T05:52:55.002Z,98368.72
2023-04-26T05:55:25.810Z,98377.19
2023-04-26T05:57:59.062Z,98372.88
2023-04-26T06:00:29.787Z,98372.88
2023-04-26T06:03:00.821Z,98372.72
2023-04-26T06:05:31.641Z,98377.41
2023-04-26T06:08:02.555Z,98377.31
2023-04-26T06:10:33.128Z,98374.06
2023-04-26T06:13:06.318Z,98378.34
2023-04-26T06:15:39.636Z,98373.31
2023-04-26T06:18:10.118Z,98372.50
2023-04-26T06:20:40.598Z,98382.53
2023-04-26T06:23:11.373Z,98375.78
2023-04-26T06:25:44.888Z,98386.06
2023-04-26T06:28:18.556Z,98386.06
2023-04-26T06:30:50.377Z,98387.78
2023-04-26T06:33:21.264Z,98390.25
2023-04-26T06:35:51.731Z,98382.44
2023-04-26T06:38:22.670Z,98393.50
2023-04-26T06:40:54.209Z,98393.41
2023-04-26T06:43:28.030Z,98402.53
2023-04-26T06:46:10.388Z,98395.00
2023-04-26T06:48:40.912Z,98397.41
2023-04-26T06:51:12.061Z,98394.69
2023-04-26T06:53:42.472Z,98389.31
2023-04-26T06:56:13.038Z,98390.94
2023-04-26T06:59:03.393Z,98392.63
2023-04-26T07:01:36.037Z,98383.19
2023-04-26T07:04:10.192Z,98393.06
2023-04-26T07:06:41.557Z,98384.56
2023-04-26T07:09:12.544Z,98381.94
2023-04-26T07:11:43.134Z,98391.09
2023-04-26T07:14:17.589Z,98377.38
2023-04-26T07:16:48.167Z,98370.56
2023-04-26T07:19:19.428Z,98367.84
2023-04-26T07:21:49.940Z,98366.50
2023-04-26T07:24:20.507Z,98366.38
2023-04-26T07:26:50.949Z,98361.31
2023-04-26T07:29:24.192Z,98362.13
2023-04-26T07:31:54.667Z,98363.13
2023-04-26T07:34:25.053Z,98365.59
2023-04-26T07:36:56.431Z,98366.44
2023-04-26T07:39:27.016Z,98367.09
2023-04-26T07:41:57.997Z,98359.16
2023-04-26T07:44:31.216Z,98356.75
2023-04-26T07:47:01.639Z,98352.63
2023-04-26T07:49:32.309Z,98358.50
2023-04-26T07:52:02.721Z,98354.94
2023-04-26T07:54:33.209Z,98356.41
2023-04-26T07:57:03.843Z,98359.31
2023-04-26T07:59:36.948Z,98357.41
2023-04-26T08:02:07.499Z,98358.97
2023-04-26T08:04:38.289Z,98360.63
2023-04-26T08:07:08.958Z,98368.00
2023-04-26T08:09:39.522Z,98363.19
2023-04-26T08:12:11.203Z,98358.03
2023-04-26T08:14:44.540Z,98361.03
2023-04-26T08:17:15.308Z,98366.72
2023-04-26T08:19:45.787Z,98359.97
2023-04-26T08:22:16.354Z,98360.22
2023-04-26T08:24:51.487Z,98371.03
2023-04-26T08:27:21.917Z,98367.06
2023-04-26T08:29:55.026Z,98370.75
2023-04-26T08:32:25.623Z,98368.53
2023-04-26T08:34:56.195Z,98363.25
2023-04-26T08:37:28.743Z,98364.81
2023-04-26T08:40:00.284Z,98368.59
2023-04-26T08:42:31.840Z,98371.34
2023-04-26T08:45:07.761Z,98372.19
2023-04-26T08:47:46.686Z,98371.22
2023-04-26T08:50:18.972Z,98379.25
2023-04-26T08:52:53.079Z,98368.41
2023-04-26T08:55:24.195Z,98368.53
2023-04-26T08:57:54.970Z,98366.78
2023-04-26T09:00:28.535Z,98366.84
2023-04-26T09:02:59.416Z,98360.63
2023-04-26T09:05:30.126Z,98369.28
2023-04-26T09:08:05.676Z,98364.75
2023-04-26T09:10:36.097Z,98369.78
2023-04-26T09:13:06.758Z,98364.41
2023-04-26T09:15:40.415Z,98367.56
2023-04-26T09:18:21.834Z,98368.97
2023-04-26T09:21:08.160Z,98362.50
2023-04-26T09:23:39.123Z,98363.31
2023-04-26T09:26:23.270Z,98359.91
2023-04-26T09:28:54.356Z,98359.91
2023-04-26T09:31:42.504Z,98360.75
2023-04-26T09:34:14.408Z,98357.94
2023-04-26T09:36:51.641Z,98349.16
2023-04-26T09:39:40.655Z,98347.59
2023-04-26T09:42:21.237Z,98344.56
2023-04-26T09:44:54.091Z,98337.00
2023-04-26T09:47:27.135Z,98338.34
2023-04-26T09:49:57.667Z,98342.56
2023-04-26T09:52:29.274Z,98341.19
2023-04-26T09:54:59.620Z,98342.84
2023-04-26T09:57:30.192Z,98341.06
2023-04-26T10:00:01.107Z,98344.94
2023-04-26T10:02:34.865Z,98343.81
2023-04-26T10:05:07.351Z,98348.09
2023-04-26T10:07:38.199Z,98338.66
2023-04-26T10:10:11.614Z,98349.13
2023-04-26T10:12:44.022Z,98341.22
2023-04-26T10:15:16.215Z,98334.88
2023-04-26T10:17:51.945Z,98332.91
2023-04-26T10:20:25.741Z,98329.38
2023-04-26T10:23:01.485Z,98324.31
2023-04-26T10:25:43.415Z,98328.41
2023-04-26T10:28:13.908Z,98324.31
2023-04-26T10:31:00.491Z,98321.50
2023-04-26T10:33:33.673Z,98320.81
2023-04-26T10:36:15.798Z,98322.38
2023-04-26T10:39:22.040Z,98317.34
2023-04-26T10:41:52.485Z,98319.25
2023-04-26T10:44:42.953Z,98311.94
2023-04-26T10:47:31.626Z,98309.28
2023-04-26T10:50:10.742Z,98310.09
2023-04-26T10:53:08.489Z,98316.00
2023-04-26T10:55:43.109Z,98306.13
2023-04-26T10:58:32.570Z,98310.94
2023-04-26T11:01:11.789Z,98310.19
2023-04-26T11:03:44.716Z,98302.69
2023-04-26T11:06:19.162Z,98302.50
2023-04-26T11:08:51.564Z,98298.41
2023-04-26T11:11:22.440Z,98295.59
2023-04-26T11:13:52.861Z,98300.44
2023-04-26T11:16:26.984Z,98297.59
2023-04-26T11:18:58.481Z,98301.78
2023-04-26T11:21:32.859Z,98298.41
2023-04-26T11:24:03.216Z,98293.91
2023-04-26T11:26:37.259Z,98287.38
2023-04-26T11:29:13.550Z,98277.84
2023-04-26T11:31:44.377Z,98278.50
2023-04-26T11:34:14.813Z,98264.97
2023-04-26T11:36:48.404Z,98260.16
2023-04-26T11:39:19.404Z,98261.84
2023-04-26T11:41:49.985Z,98258.00
2023-04-26T11:44:23.907Z,98246.19
2023-04-26T11:46:54.581Z,98247.66
2023-04-26T11:49:25.278Z,98240.84
2023-04-26T11:51:58.700Z,98243.88
2023-04-26T11:54:33.039Z,98245.38
2023-04-26T11:57:03.919Z,98243.13
2023-04-26T11:59:34.734Z,98233.97
2023-04-26T12:02:10.413Z,98229.78
2023-04-26T12:04:42.470Z,98226.09
2023-04-26T12:07:15.812Z,98224.88
2023-04-26T12:09:47.138Z,98221.56
2023-04-26T12:12:18.366Z,98222.31
2023-04-26T12:14:50.613Z,98227.22
2023-04-26T12:17:21.640Z,98224.53
2023-04-26T12:19:53.833Z,98222.50
2023-04-26T12:22:27.174Z,98225.00
2023-04-26T12:25:08.682Z,98223.88
2023-04-26T12:27:39.803Z,98213.38
2023-04-26T12:30:13.157Z,98225.84
2023-04-26T12:32:43.530Z,98224.13
2023-04-26T12:35:14.076Z,98210.03
2023-04-26T12:37:48.155Z,98209.09
2023-04-26T12:40:20.062Z,98209.81
2023-04-26T12:42:52.102Z,98206.13
2023-04-26T12:45:23.252Z,98208.16
2023-04-26T12:47:53.960Z,98206.47
2023-04-26T12:50:24.943Z,98199.16
2023-04-26T12:52:58.210Z,98207.81
2023-04-26T12:55:31.229Z,98201.16
2023-04-26T12:58:02.891Z,98199.41
2023-04-26T13:00:33.422Z,98202.94
2023-04-26T13:03:04.147Z,98203.50
2023-04-26T13:05:34.861Z,98205.03
2023-04-26T13:08:07.956Z,98194.19
2023-04-26T13:10:38.606Z,98190.44
2023-04-26T13:13:09.055Z,98194.59
2023-04-26T13:15:39.500Z,98188.88
2023-04-26T13:18:09.974Z,98195.34
2023-04-26T13:20:40.886Z,98197.78
2023-04-26T13:23:14.407Z,98186.41
2023-04-26T13:25:45.052Z,98190.75
2023-04-26T13:28:15.888Z,98188.81
2023-04-26T13:30:46.628Z,98182.03
2023-04-26T13:33:17.376Z,98182.59
2023-04-26T13:35:47.907Z,98183.81
2023-04-26T13:38:21.213Z,98183.59
2023-04-26T13:40:51.609Z,98180.03
2023-04-26T13:43:22.141Z,98188.88
2023-04-26T13:45:52.588Z,98179.41
2023-04-26T13:48:23.143Z,98178.84
2023-04-26T13:50:53.750Z,98182.78
2023-04-26T13:53:26.808Z,98182.25
2023-04-26T13:55:57.278Z,98183.91
2023-04-26T13:58:27.805Z,98171.00
2023-04-26T14:00:58.188Z,98164.97
2023-04-26T14:03:29.698Z,98172.69
2023-04-26T14:06:00.738Z,98177.09
2023-04-26T14:08:33.675Z,98176.41
2023-04-26T14:11:04.251Z,98172.13
2023-04-26T14:13:34.660Z,98166.38
2023-04-26T14:16:05.355Z,98169.84
2023-04-26T14:18:35.930Z,98165.13
2023-04-26T14:21:06.617Z,98155.47
2023-04-26T14:23:39.648Z,98159.75
2023-04-26T14:26:10.142Z,98154.53
2023-04-26T14:28:41.353Z,98150.41
2023-04-26T14:31:12.943Z,98150.50
2023-04-26T14:33:43.383Z,98145.38
2023-04-26T14:36:14.026Z,98143.34
2023-04-26T14:38:48.448Z,98152.25
2023-04-26T14:41:19.334Z,98151.66
2023-04-26T14:43:50.761Z,98154.75
2023-04-26T14:46:21.152Z,98157.78
2023-04-26T14:48:51.636Z,98154.78
2023-04-26T14:51:22.146Z,98153.09
2023-04-26T14:53:55.416Z,98160.97
2023-04-26T14:56:25.865Z,98163.06
2023-04-26T14:58:56.517Z,98158.94
2023-04-26T15:01:27.082Z,98164.66
2023-04-26T15:04:00.300Z,98163.75
2023-04-26T15:06:32.291Z,98161.53
2023-04-26T15:09:08.849Z,98160.16
2023-04-26T15:11:39.518Z,98159.88
2023-04-26T15:14:10.166Z,98160.41
2023-04-26T15:16:40.938Z,98162.88
2023-04-26T15:19:11.603Z,98153.06
2023-04-26T15:21:42.498Z,98149.84
2023-04-26T15:24:15.605Z,98143.50
2023-04-26T15:26:45.959Z,98136.72
2023-04-26T15:29:16.471Z,98145.91
2023-04-26T15:31:46.833Z,98134.75
2023-04-26T15:34:17.318Z,98140.41
2023-04-26T15:36:47.679Z,98125.34
2023-04-26T15:39:20.906Z,98125.47
2023-04-26T15:41:51.221Z,98132.16
2023-04-26T15:44:21.921Z,98136.06
2023-04-26T15:46:52.343Z,98124.41
2023-04-26T15:49:22.981Z,98123.31
2023-04-26T15:51:53.765Z,98122.94
2023-04-26T15:54:26.935Z,98132.53
2023-04-26T15:56:58.354Z,98137.78
2023-04-26T15:59:30.886Z,98128.72
2023-04-26T16:02:02.056Z,98123.75
2023-04-26T16:04:33.058Z,98127.66
2023-04-26T16:07:03.760Z,98121.13
2023-04-26T16:09:37.327Z,98129.38
2023-04-26T16:12:08.579Z,98124.19
2023-04-26T16:14:39.648Z,98131.22
2023-04-26T16:17:09.965Z,98127.03
2023-04-26T16:19:40.592Z,98130.47
2023-04-26T16:22:10.975Z,98126.97
2023-04-26T16:24:44.067Z,98122.63
2023-04-26T16:27:14.499Z,98120.09
2023-04-26T16:29:44.889Z,98125.31
2023-04-26T16:32:15.361Z,98128.03
2023-04-26T16:34:45.831Z,98131.84
2023-04-26T16:37:16.266Z,98125.47
2023-04-26T16:39:49.483Z,98140.03
2023-04-26T16:42:19.932Z,98133.28
2023-04-26T16:44:50.445Z,98128.88
2023-04-26T16:47:21.047Z,98127.72
2023-04-26T16:49:51.530Z,98123.31
2023-04-26T16:52:22.170Z,98121.69
2023-04-26T16:54:55.273Z,98123.78
2023-04-26T16:57:25.919Z,98130.25
2023-04-26T16:59:56.654Z,98131.06
2023-04-26T17:02:27.367Z,98128.34
2023-04-26T17:04:58.125Z,98135.25
2023-04-26T17:07:28.919Z,98136.63
2023-04-26T17:10:02.135Z,98136.81
2023-04-26T17:12:32.666Z,98134.63
2023-04-26T17:15:04.608Z,98140.63
2023-04-26T17:17:35.856Z,98139.19
2023-04-26T17:20:10.160Z,98142.53
2023-04-26T17:22:41.736Z,98144.81
2023-04-26T17:25:15.153Z,98155.44
2023-04-26T17:27:45.635Z,98153.41
2023-04-26T17:30:17.369Z,98156.97
2023-04-26T17:32:48.207Z,98152.78
2023-04-26T17:35:19.021Z,98161.09
2023-04-26T17:37:50.545Z,98151.88
2023-04-26T17:40:24.025Z,98157.59
2023-04-26T17:43:03.713Z,98157.06
2023-04-26T17:45:34.360Z,98156.72
2023-04-26T17:48:04.889Z,98164.94
2023-04-26T17:50:35.425Z,98162.13
2023-04-26T17:53:06.306Z,98167.22
2023-04-26T17:55:39.434Z,98165.00
2023-04-26T17:58:09.804Z,98173.03
2023-04-26T18:00:40.275Z,98179.22
2023-04-26T18:03:12.394Z,98180.16
2023-04-26T18:05:43.036Z,98175.66
2023-04-26T18:08:13.608Z,98181.13
2023-04-26T18:10:48.482Z,98182.09
2023-04-26T18:13:19.453Z,98180.91
2023-04-26T18:15:51.450Z,98181.63
2023-04-26T18:18:21.948Z,98189.44
2023-04-26T18:20:52.486Z,98187.91
2023-04-26T18:23:22.940Z,98186.56
2023-04-26T18:25:56.170Z,98186.81
2023-04-26T18:28:26.913Z,98186.44
2023-04-26T18:31:00.316Z,98191.94
2023-04-26T18:33:32.145Z,98193.13
2023-04-26T18:36:03.013Z,98197.13
2023-04-26T18:38:33.951Z,98201.28
2023-04-26T18:41:07.080Z,98200.75
2023-04-26T18:43:37.712Z,98205.69
2023-04-26T18:46:08.411Z,98201.50
2023-04-26T18:48:38.911Z,98216.91
2023-04-26T18:51:09.542Z,98221.06
2023-04-26T18:53:39.952Z,98225.69
2023-04-26T18:56:13.145Z,98230.47
2023-04-26T18:58:43.653Z,98223.91
2023-04-26T19:01:14.324Z,98231.31
2023-04-26T19:03:45.059Z,98230.56
2023-04-26T19:06:17.559Z,98225.69
2023-04-26T19:08:48.445Z,98235.66
2023-04-26T19:11:21.430Z,98238.78
2023-04-26T19:13:51.942Z,98235.88
2023-04-26T19:16:22.489Z,98246.91
2023-04-26T19:18:53.089Z,98250.03
2023-04-26T19:21:23.741Z,98253.13
2023-04-26T19:23:54.165Z,98252.50
2023-04-26T19:26:27.352Z,98261.75
2023-04-26T19:28:58.407Z,98264.63
2023-04-26T19:31:29.916Z,98263.16
2023-04-26T19:34:00.606Z,98265.22
2023-04-26T19:36:31.698Z,98262.13
2023-04-26T19:39:02.110Z,98272.06
2023-04-26T19:41:35.151Z,98273.38
2023-04-26T19:44:05.513Z,98275.34
2023-04-26T19:46:37.129Z,98286.66
2023-04-26T19:49:07.813Z,98279.81
2023-04-26T19:51:38.318Z,98282.59
2023-04-26T19:54:08.910Z,98284.75
2023-04-26T19:56:41.971Z,98280.59
2023-04-26T19:59:13.621Z,98281.72
2023-04-26T20:01:44.350Z,98286.16
2023-04-26T20:04:14.943Z,98288.00
2023-04-26T20:06:45.662Z,98289.97
2023-04-26T20:09:16.897Z,98282.44
2023-04-26T20:11:50.136Z,98285.44
2023-04-26T20:14:20.831Z,98284.81
2023-04-26T20:16:51.906Z,98285.63
2023-04-26T20:19:22.628Z,98277.97
2023-04-26T20:21:53.205Z,98285.81
2023-04-26T20:24:24.275Z,98285.28
2023-04-26T20:26:58.177Z,98290.75
2023-04-26T20:29:28.615Z,98287.41
2023-04-26T20:32:00.097Z,98290.28
2023-04-26T20:34:30.856Z,98286.22
2023-04-26T20:37:01.339Z,98283.09
2023-04-26T20:39:33.875Z,98285.03
2023-04-26T20:42:07.460Z,98279.94
2023-04-26T20:44:38.222Z,98284.59
2023-04-26T20:47:09.003Z,98291.81
2023-04-26T20:49:39.506Z,98286.06
2023-04-26T20:52:10.260Z,98282.94
2023-04-26T20:54:40.722Z,98279.69
2023-04-26T20:57:13.776Z,98288.56
2023-04-26T20:59:44.168Z,98286.09
2023-04-26T21:02:15.048Z,98286.25
2023-04-26T21:04:45.921Z,98289.13
2023-04-26T21:07:16.865Z,98281.44
2023-04-26T21:09:47.271Z,98280.72
2023-04-26T21:12:20.527Z,98291.53
2023-04-26T21:14:51.276Z,98294.56
2023-04-26T21:17:21.965Z,98292.31
2023-04-26T21:19:52.476Z,98291.94
2023-04-26T21:22:22.921Z,98282.69
2023-04-26T21:24:54.659Z,98292.31
2023-04-26T21:27:27.881Z,98288.13
2023-04-26T21:29:58.300Z,98289.97
2023-04-26T21:32:28.786Z,98294.50
2023-04-26T21:34:59.304Z,98292.16
2023-04-26T21:37:29.813Z,98288.91
2023-04-26T21:40:00.567Z,98284.81
2023-04-26T21:42:33.854Z,98284.09
2023-04-26T21:45:04.389Z,98295.44
2023-04-26T21:47:34.982Z,98287.84
2023-04-26T21:50:06.707Z,98283.69
2023-04-26T21:52:37.222Z,98288.22
2023-04-26T21:55:09.360Z,98282.22
2023-04-26T21:57:42.657Z,98287.38
2023-04-26T22:00:14.699Z,98291.91
2023-04-26T22:02:45.374Z,98291.06
2023-04-26T22:05:16.007Z,98296.41
2023-04-26T22:07:46.599Z,98298.22
2023-04-26T22:10:17.211Z,98296.56
2023-04-26T22:12:50.197Z,98294.16
2023-04-26T22:15:20.687Z,98301.19
2023-04-26T22:17:51.386Z,98298.91
2023-04-26T22:20:22.741Z,98296.66
2023-04-26T22:22:53.972Z,98295.09
2023-04-26T22:25:25.417Z,98305.88
2023-04-26T22:27:58.446Z,98303.59
2023-04-26T22:30:28.947Z,98303.97
2023-04-26T22:33:00.272Z,98307.63
2023-04-26T22:35:31.758Z,98299.09
2023-04-26T22:38:02.160Z,98300.97
2023-04-26T22:40:32.818Z,98300.19
2023-04-26T22:43:06.237Z,98305.47
2023-04-26T22:45:36.793Z,98297.94
2023-04-26T22:48:07.760Z,98309.28
2023-04-26T22:50:38.270Z,98300.75
2023-04-26T22:53:08.621Z,98304.28
2023-04-26T22:55:39.090Z,98313.25
2023-04-26T22:58:12.106Z,98309.03
2023-04-26T23:00:42.588Z,98309.28
2023-04-26T23:03:13.178Z,98310.34
2023-04-26T23:05:43.662Z,98310.50
2023-04-26T23:08:14.307Z,98311.56
2023-04-26T23:10:44.755Z,98311.72
2023-04-26T23:13:17.717Z,98318.91
2023-04-26T23:15:48.229Z,98321.53
2023-04-26T23:18:18.718Z,98323.28
2023-04-26T23:20:49.181Z,98319.03
2023-04-26T23:23:19.712Z,98317.44
2023-04-26T23:25:50.013Z,98312.44
2023-04-26T23:28:23.157Z,98319.53
2023-04-26T23:30:53.609Z,98316.19
2023-04-26T23:33:24.276Z,98310.25
2023-04-26T23:35:57.520Z,98308.84
2023-04-26T23:38:28.182Z,98306.16
2023-04-26T23:40:58.652Z,98313.22
2023-04-26T23:43:31.739Z,98307.31
2023-04-26T23:46:02.237Z,98314.38
2023-04-26T23:48:32.874Z,98328.31
2023-04-26T23:51:03.253Z,98325.06
2023-04-26T23:53:33.935Z,98324.38
2023-04-26T23:56:04.290Z,98321.06
2023-04-26T23:58:37.371Z,98321.81
